Tropical Cyclones
[Index]
Main Index Home Page Stock Weather Photos Extreme Storms Discussion Storm News and Storm Chasing Reports Tropical Cyclones / Hurricanes / Typhoons Weather Data and Links Wild Fires / Bushfires Weather Observation Techniques Weather Picture Catalogue Tornado Pictures and Reports Stock Video Footage and DVDs for sale
Season 2004-2005 Tropical Cyclone WILLY Track Map
Season 2004-2005 Summaries: [BoM-AU] [JTWC-AU] [JTWC-SIO] [JTWC-SPAC] [JTWC-SH]
<<- Previous TC | BoM 2004-2005 Season | Next TC ->>

click for intensity scale information  Lat/long Grid: Show Hide

 Date Labels: Show Hide

Bureau of Meteorology Tropical Cyclone Data

Name: WILLY
Number: 887 / 200405_08

08 Mar 2005 06:00 UTC to 14 Mar 2005 12:00 UTC

    date/time    lat    long    hPa   cat  kts
2005-03-08 06   11.8   120.2   1008         20          
2005-03-08 12   12.1   120.1   1006         20          
2005-03-08 18   12.4   119.9   1005         20          
2005-03-09 00   12.7   119.7   1002         25          
2005-03-09 06   13.1   119.2   1000         30          
2005-03-09 12   13.5   118.6    998         30          
2005-03-09 18   13.9   117.7    995    1    40          
2005-03-10 00   14.1   116.7    992    1    45          
2005-03-10 06   14.5   115.9    985    2    50          
2005-03-10 12   15.0   115.3    980    2    55          
2005-03-10 18   15.6   114.5    970    3    65          
2005-03-11 00   16.1   113.6    965    3    70          
2005-03-11 06   16.5   112.7    960    3    70          
2005-03-11 12   17.3   112.1    960    3    75          
2005-03-11 18   17.9   111.5    960    3    75          
2005-03-12 00   18.6   110.9    960    3    75          
2005-03-12 06   19.4   110.4    960    3    75          
2005-03-12 12   20.1   110.0    960    3    75          
2005-03-12 18   20.6   109.3    965    3    75          
2005-03-13 00   20.9   109.0    970    3    70          
2005-03-13 06   21.2   108.6    975    2    60          
2005-03-13 12   21.3   108.1    982    2    50          
2005-03-13 18   21.4   107.6    990    1    40          
2005-03-14 00   21.2   107.2    995    1    35          
2005-03-14 06   21.3   106.6    998         35          
2005-03-14 12   21.1   106.0   1000         25          
Winds are 10-min average.

Tropical cyclone tracks developed by Michael Bath using data from the Bureau of Meteorology and Google Maps.


[Australian Severe Weather index] [Copyright Notice] [Email Contacts] [Search This Site] [Privacy Policy]
Document: tropical_cyclone_willy.htm Updated: 29 June 2017